Time;durP1;ratioP1;P1;durP2;ratioP2;P2;SDS_P1;SDS_P2;PMS_P1;PMS_P2;Temp;Humidity;BMP_temperature;BMP_pressure;BME280_temperature;BME280_humidity;BME280_pressure;Samples;Min_cycle;Max_cycle;Signal;HPM_P1;HPM_P2
2024/04/02 00:01:10;;;;;;;4.43;3.00;;;13.10;99.90;;;;;;5011449;28;20422;-61
2024/04/02 00:03:36;;;;;;;2.47;2.37;;;13.10;99.90;;;;;;5011770;28;20941;-60
2024/04/02 00:06:03;;;;;;;2.20;2.10;;;13.10;99.90;;;;;;5012608;28;20429;-61
2024/04/02 00:08:29;;;;;;;2.77;2.50;;;13.10;99.90;;;;;;5009779;28;20505;-60
2024/04/02 00:11:04;;;;;;;3.00;2.77;;;13.20;99.90;;;;;;5012291;28;20457;-61
2024/04/02 00:13:30;;;;;;;2.40;2.30;;;13.10;99.90;;;;;;5010276;28;20455;-60
2024/04/02 00:15:56;;;;;;;2.50;2.40;;;13.10;99.90;;;;;;5012189;28;20441;-61
2024/04/02 00:18:22;;;;;;;2.50;2.40;;;13.00;99.90;;;;;;5011193;28;20406;-60
2024/04/02 00:20:48;;;;;;;2.90;2.80;;;13.10;99.90;;;;;;5012242;28;20425;-60
2024/04/02 00:23:13;;;;;;;2.23;2.13;;;13.10;99.90;;;;;;5012322;28;20410;-61
2024/04/02 00:25:40;;;;;;;3.43;3.13;;;13.10;99.90;;;;;;5011261;28;20305;-61
2024/04/02 00:28:06;;;;;;;2.20;2.10;;;13.10;99.90;;;;;;5011826;28;20181;-61
2024/04/02 00:30:32;;;;;;;2.43;2.33;;;13.00;99.90;;;;;;5010228;28;20461;-60
2024/04/02 00:32:59;;;;;;;2.47;2.27;;;13.00;99.90;;;;;;5011643;28;20433;-61
2024/04/02 00:35:25;;;;;;;3.13;2.30;;;13.00;99.90;;;;;;5011274;28;20410;-61
2024/04/02 00:37:51;;;;;;;2.30;2.20;;;13.00;99.90;;;;;;5010876;28;20406;-61
2024/04/02 00:40:18;;;;;;;2.13;2.03;;;13.00;99.90;;;;;;5014742;28;20886;-60
2024/04/02 00:42:45;;;;;;;2.43;2.17;;;12.90;99.90;;;;;;5015740;28;20402;-60
2024/04/02 00:45:12;;;;;;;2.83;2.57;;;13.00;99.90;;;;;;5015806;28;20414;-61
2024/04/02 00:47:39;;;;;;;2.67;2.47;;;12.90;99.90;;;;;;5014632;28;20429;-61
2024/04/02 00:50:06;;;;;;;2.53;2.33;;;12.90;99.90;;;;;;5015608;28;20476;-61
2024/04/02 00:52:32;;;;;;;2.30;2.20;;;12.90;99.90;;;;;;5014529;28;20413;-60
2024/04/02 00:54:59;;;;;;;1.90;1.90;;;13.00;99.90;;;;;;5015459;28;20405;-60
2024/04/02 00:57:25;;;;;;;3.27;2.73;;;13.00;99.90;;;;;;5014468;28;20410;-60
2024/04/02 00:59:51;;;;;;;3.03;2.30;;;13.00;99.90;;;;;;5013988;28;20468;-61
2024/04/02 01:02:18;;;;;;;2.40;2.20;;;13.00;99.90;;;;;;5014813;28;20461;-61
2024/04/02 01:04:47;;;;;;;2.20;2.10;;;13.00;99.90;;;;;;5014887;28;20878;-61
2024/04/02 01:07:14;;;;;;;2.50;2.40;;;13.00;99.90;;;;;;5013726;28;20412;-61
2024/04/02 01:09:41;;;;;;;2.20;2.10;;;13.00;99.90;;;;;;5013898;28;20445;-60
2024/04/02 01:12:08;;;;;;;2.00;1.97;;;13.00;99.90;;;;;;5014866;28;20816;-61
2024/04/02 01:14:40;;;;;;;2.60;2.40;;;13.00;99.90;;;;;;5014020;28;20406;-61
2024/04/02 01:17:07;;;;;;;2.40;2.30;;;13.00;99.90;;;;;;5014775;28;20409;-61
2024/04/02 01:19:33;;;;;;;3.27;3.07;;;13.00;99.90;;;;;;5014089;28;20467;-61
2024/04/02 01:21:59;;;;;;;2.37;2.27;;;12.90;99.90;;;;;;5014316;28;20414;-61
2024/04/02 01:24:26;;;;;;;2.40;2.20;;;12.80;99.90;;;;;;5013765;28;20527;-61
2024/04/02 01:26:52;;;;;;;2.50;2.33;;;12.80;99.90;;;;;;5014747;28;20440;-60
2024/04/02 01:29:17;;;;;;;2.50;1.90;;;12.70;99.90;;;;;;5013241;28;20462;-61
2024/04/02 01:31:43;;;;;;;2.23;2.13;;;12.70;99.90;;;;;;5012252;28;20581;-61
2024/04/02 01:34:09;;;;;;;3.00;2.67;;;12.70;99.90;;;;;;5013420;28;20505;-61
2024/04/02 01:36:35;;;;;;;2.30;2.20;;;12.70;99.90;;;;;;5013600;28;20241;-61
2024/04/02 01:39:01;;;;;;;2.00;1.90;;;12.70;99.90;;;;;;5013884;28;20421;-60
2024/04/02 01:41:26;;;;;;;2.33;2.23;;;12.60;99.90;;;;;;5012153;28;20204;-60
2024/04/02 01:43:52;;;;;;;2.70;2.50;;;12.70;99.90;;;;;;4992727;28;20175;-61
2024/04/02 01:46:18;;;;;;;4.97;2.50;;;12.70;99.90;;;;;;5014179;28;20174;-61
2024/04/02 01:48:44;;;;;;;2.90;2.70;;;12.70;99.90;;;;;;5013221;28;20186;-61
2024/04/02 01:51:10;;;;;;;2.57;2.47;;;12.70;99.90;;;;;;5013853;28;20425;-61
2024/04/02 01:53:35;;;;;;;2.80;2.70;;;12.70;99.90;;;;;;5012103;28;20209;-60
2024/04/02 01:56:03;;;;;;;2.73;2.50;;;12.70;99.90;;;;;;5013924;28;20261;-61
2024/04/02 01:58:29;;;;;;;2.57;2.47;;;12.70;99.90;;;;;;5012501;28;20187;-60
2024/04/02 02:00:55;;;;;;;3.73;2.63;;;12.70;99.90;;;;;;5013626;28;20414;-61
2024/04/02 02:03:20;;;;;;;2.40;2.30;;;12.70;99.90;;;;;;5013772;28;20298;-61
2024/04/02 02:05:47;;;;;;;3.37;3.17;;;12.70;99.90;;;;;;5013311;28;20200;-61
2024/04/02 02:08:13;;;;;;;2.87;2.60;;;12.60;99.90;;;;;;5012905;28;20212;-61
2024/04/02 02:10:38;;;;;;;2.60;2.40;;;12.60;99.90;;;;;;5012638;28;20453;-61
2024/04/02 02:13:05;;;;;;;5.57;2.53;;;12.60;99.90;;;;;;5013696;28;20185;-61
2024/04/02 02:15:31;;;;;;;3.17;2.87;;;12.60;99.90;;;;;;5013056;28;20178;-60
2024/04/02 02:17:57;;;;;;;2.50;2.40;;;12.60;99.90;;;;;;5013485;28;20417;-61
2024/04/02 02:20:23;;;;;;;3.53;3.23;;;12.60;99.90;;;;;;5013679;28;20777;-60
2024/04/02 02:22:48;;;;;;;3.00;2.77;;;12.60;99.90;;;;;;5012740;28;20414;-61
2024/04/02 02:25:14;;;;;;;2.80;2.53;;;12.70;99.90;;;;;;5011300;28;20189;-61
2024/04/02 02:27:40;;;;;;;2.80;2.50;;;12.70;99.90;;;;;;5012788;28;20184;-60
2024/04/02 02:30:10;;;;;;;2.90;2.27;;;12.70;99.90;;;;;;5012287;28;20667;-61
2024/04/02 02:32:35;;;;;;;2.43;2.23;;;12.70;99.90;;;;;;5012629;28;20423;-61
2024/04/02 02:35:02;;;;;;;2.40;2.27;;;12.60;99.90;;;;;;5013483;28;20419;-61
2024/04/02 02:37:28;;;;;;;1.93;1.93;;;12.60;99.90;;;;;;5011376;28;20183;-60
2024/04/02 02:39:54;;;;;;;2.30;2.10;;;12.60;99.90;;;;;;5013261;28;20480;-61
2024/04/02 02:42:21;;;;;;;2.53;2.30;;;12.60;99.90;;;;;;5013255;28;20180;-61
2024/04/02 02:44:47;;;;;;;3.17;2.30;;;12.60;99.90;;;;;;5012787;28;21047;-60
2024/04/02 02:47:12;;;;;;;2.30;2.20;;;12.50;99.90;;;;;;5012845;28;20445;-61
2024/04/02 02:49:38;;;;;;;2.97;2.67;;;12.50;99.90;;;;;;5011904;28;20205;-61
2024/04/02 02:52:04;;;;;;;2.60;2.30;;;12.50;99.90;;;;;;5013161;28;20194;-61
2024/04/02 02:54:30;;;;;;;2.30;2.10;;;12.60;99.90;;;;;;5009954;28;20221;-60
2024/04/02 02:56:55;;;;;;;2.17;2.00;;;12.60;99.90;;;;;;5013323;28;20177;-61
2024/04/02 02:59:21;;;;;;;2.53;2.33;;;12.60;99.90;;;;;;5012977;28;20181;-61
2024/04/02 03:01:47;;;;;;;2.50;2.30;;;12.60;99.90;;;;;;5010775;28;20186;-60
2024/04/02 03:04:12;;;;;;;2.67;2.37;;;12.60;99.90;;;;;;5012991;28;20209;-61
2024/04/02 03:06:38;;;;;;;2.60;2.40;;;12.50;99.90;;;;;;5010556;28;20254;-60
2024/04/02 03:09:04;;;;;;;4.07;2.47;;;12.60;99.90;;;;;;5012262;28;20536;-60
2024/04/02 03:11:30;;;;;;;2.63;2.53;;;12.60;99.90;;;;;;5012105;28;20649;-60
2024/04/02 03:13:55;;;;;;;2.70;2.60;;;12.60;99.90;;;;;;5012916;28;20179;-60
2024/04/02 03:16:21;;;;;;;3.03;2.43;;;12.60;99.90;;;;;;5011927;28;20182;-60
2024/04/02 03:18:47;;;;;;;2.30;2.20;;;12.60;99.90;;;;;;5011119;28;20425;-60
2024/04/02 03:21:14;;;;;;;2.50;2.30;;;12.60;99.90;;;;;;5012294;28;20186;-60
2024/04/02 03:23:42;;;;;;;2.63;2.43;;;12.60;99.90;;;;;;5011812;28;20545;-60
2024/04/02 03:26:08;;;;;;;2.47;2.27;;;12.60;99.90;;;;;;5012168;28;20956;-61
2024/04/02 03:28:33;;;;;;;3.03;2.83;;;12.60;99.90;;;;;;5011267;28;20417;-60
2024/04/02 03:31:05;;;;;;;3.00;2.80;;;12.50;99.90;;;;;;5012563;28;20638;-60
2024/04/02 03:33:31;;;;;;;2.50;2.40;;;12.60;99.90;;;;;;5011724;28;20426;-60
2024/04/02 03:36:05;;;;;;;2.73;2.40;;;12.60;99.90;;;;;;5012108;28;20830;-61
2024/04/02 03:38:32;;;;;;;2.63;2.43;;;12.50;99.90;;;;;;5005919;28;20476;-60
2024/04/02 03:41:12;;;;;;;2.83;2.40;;;12.60;99.90;;;;;;5012244;28;20819;-61
2024/04/02 03:43:39;;;;;;;3.17;2.50;;;12.50;99.90;;;;;;5011640;28;20416;-60
2024/04/02 03:46:06;;;;;;;2.10;2.03;;;12.50;99.90;;;;;;5000095;28;20431;-61
2024/04/02 03:48:32;;;;;;;2.90;2.70;;;12.60;99.90;;;;;;5005074;28;20953;-60
2024/04/02 03:50:57;;;;;;;3.10;2.90;;;12.50;99.90;;;;;;5012247;28;20485;-61
2024/04/02 03:53:23;;;;;;;3.67;2.87;;;12.50;99.90;;;;;;5012339;28;20451;-60
2024/04/02 03:55:59;;;;;;;2.40;2.30;;;12.50;99.90;;;;;;5011225;28;20178;-61
2024/04/02 03:58:26;;;;;;;3.10;2.90;;;12.50;99.90;;;;;;5012092;28;20435;-64
2024/04/02 04:00:54;;;;;;;2.80;2.60;;;12.60;99.90;;;;;;5011703;28;20417;-64
2024/04/02 04:03:20;;;;;;;2.90;2.43;;;12.50;99.90;;;;;;5012052;28;20839;-64
2024/04/02 04:05:46;;;;;;;3.30;3.00;;;12.40;99.90;;;;;;5010556;28;20750;-64
2024/04/02 04:08:12;;;;;;;2.80;2.60;;;12.40;99.90;;;;;;5011454;28;20420;-64
2024/04/02 04:10:37;;;;;;;2.90;2.80;;;12.40;99.90;;;;;;5011045;28;20209;-63
2024/04/02 04:13:04;;;;;;;2.90;2.70;;;12.50;99.90;;;;;;5013157;28;20636;-64
2024/04/02 04:15:30;;;;;;;2.57;2.30;;;12.40;99.90;;;;;;5014346;28;20543;-64
2024/04/02 04:17:56;;;;;;;2.77;2.57;;;12.50;99.90;;;;;;5016366;28;20794;-64
2024/04/02 04:20:24;;;;;;;3.63;2.67;;;12.40;99.90;;;;;;5016351;28;20428;-64
2024/04/02 04:22:52;;;;;;;3.20;2.97;;;12.40;99.90;;;;;;5015827;28;20422;-63
2024/04/02 04:25:18;;;;;;;4.23;3.30;;;12.40;99.90;;;;;;5015175;28;20423;-64
2024/04/02 04:27:47;;;;;;;3.10;3.00;;;12.40;99.90;;;;;;5015258;28;20912;-64
2024/04/02 04:30:12;;;;;;;3.07;2.87;;;12.40;99.90;;;;;;5016072;28;20587;-64
2024/04/02 04:32:38;;;;;;;2.67;2.50;;;12.40;99.90;;;;;;5016021;28;20442;-64
2024/04/02 04:35:04;;;;;;;2.70;2.50;;;12.50;99.90;;;;;;5015744;28;20188;-64
2024/04/02 04:37:31;;;;;;;4.90;3.63;;;12.40;99.90;;;;;;5015576;28;20204;-60
2024/04/02 04:39:57;;;;;;;5.03;3.00;;;12.40;99.90;;;;;;5015075;28;20420;-62
2024/04/02 04:42:24;;;;;;;7.40;2.80;;;12.40;99.90;;;;;;5016108;28;20746;-64
2024/04/02 04:44:50;;;;;;;3.77;3.50;;;12.30;99.90;;;;;;5014413;28;20424;-64
2024/04/02 04:47:16;;;;;;;3.80;3.40;;;12.30;99.90;;;;;;5015626;28;20421;-64
2024/04/02 04:49:42;;;;;;;3.50;3.20;;;12.40;99.90;;;;;;5013631;28;20457;-63
2024/04/02 04:52:08;;;;;;;3.20;3.00;;;12.40;99.90;;;;;;5015868;28;20182;-64
2024/04/02 04:54:34;;;;;;;3.67;3.07;;;12.40;99.90;;;;;;5015283;28;20169;-64
2024/04/02 04:57:01;;;;;;;4.70;2.80;;;12.40;99.90;;;;;;5015768;28;20417;-63
2024/04/02 04:59:26;;;;;;;3.70;3.40;;;12.30;99.90;;;;;;5015860;28;20409;-64
2024/04/02 05:01:52;;;;;;;2.80;2.60;;;12.30;99.90;;;;;;5013509;28;20432;-64
2024/04/02 05:04:18;;;;;;;6.67;3.33;;;12.40;99.90;;;;;;5015787;28;20504;-64
2024/04/02 05:06:44;;;;;;;3.90;3.70;;;12.40;99.90;;;;;;5014838;28;20414;-64
2024/04/02 05:09:13;;;;;;;3.37;3.07;;;12.40;99.90;;;;;;5015246;28;20921;-62
2024/04/02 05:11:39;;;;;;;3.30;3.00;;;12.40;99.90;;;;;;5014626;28;20182;-60
2024/04/02 05:14:05;;;;;;;3.97;3.67;;;12.40;99.90;;;;;;5013662;28;20504;-60
2024/04/02 05:16:34;;;;;;;4.30;3.90;;;12.40;99.90;;;;;;5008584;28;20440;-60
2024/04/02 05:19:01;;;;;;;5.00;4.60;;;12.40;99.90;;;;;;4995786;28;20903;-60
2024/04/02 05:21:27;;;;;;;8.43;2.90;;;12.40;99.90;;;;;;4995509;28;20490;-61
2024/04/02 05:23:52;;;;;;;4.00;3.70;;;12.40;99.90;;;;;;5010151;28;20856;-60
2024/04/02 05:26:18;;;;;;;4.27;3.87;;;12.40;99.90;;;;;;5015357;28;20178;-60
2024/04/02 05:28:44;;;;;;;3.50;3.30;;;12.50;99.90;;;;;;5014675;28;20177;-60
2024/04/02 05:31:11;;;;;;;3.17;3.07;;;12.40;99.90;;;;;;5014972;28;20205;-60
2024/04/02 05:33:37;;;;;;;3.20;3.00;;;12.40;99.90;;;;;;5013154;28;20274;-60
2024/04/02 05:36:03;;;;;;;3.00;2.80;;;12.40;99.90;;;;;;5014704;28;20443;-60
2024/04/02 05:38:29;;;;;;;3.83;3.37;;;12.40;99.90;;;;;;5014106;28;20445;-60
2024/04/02 05:40:55;;;;;;;3.90;3.17;;;12.40;99.90;;;;;;5012118;28;20211;-60
2024/04/02 05:43:20;;;;;;;4.03;3.60;;;12.30;99.90;;;;;;5014211;28;20299;-60
2024/04/02 05:45:46;;;;;;;4.43;4.07;;;12.30;99.90;;;;;;5014021;28;20620;-60
2024/04/02 05:48:12;;;;;;;4.37;3.70;;;12.20;99.90;;;;;;5014939;28;20171;-60
2024/04/02 05:50:37;;;;;;;5.00;4.60;;;12.20;99.90;;;;;;5014215;28;20264;-60
2024/04/02 05:53:03;;;;;;;4.40;4.07;;;12.20;99.90;;;;;;5014803;28;20177;-60
2024/04/02 05:55:29;;;;;;;5.57;5.07;;;12.10;99.90;;;;;;5014555;28;20254;-60
2024/04/02 05:57:57;;;;;;;3.70;3.50;;;12.10;99.90;;;;;;5012394;28;20380;-60
2024/04/02 06:00:23;;;;;;;4.53;4.13;;;12.20;99.90;;;;;;5014204;28;20182;-61
2024/04/02 06:02:48;;;;;;;5.87;4.20;;;12.20;99.90;;;;;;5012433;28;20568;-60
2024/04/02 06:05:14;;;;;;;3.50;3.30;;;12.10;99.90;;;;;;5013533;28;20963;-61
2024/04/02 06:07:40;;;;;;;4.97;4.67;;;12.10;99.90;;;;;;4999823;28;20171;-60
2024/04/02 06:10:06;;;;;;;5.50;3.70;;;12.10;99.90;;;;;;4995187;28;20720;-60
2024/04/02 06:12:31;;;;;;;4.50;3.80;;;12.20;99.90;;;;;;4994801;28;20267;-60
2024/04/02 06:14:57;;;;;;;4.97;3.77;;;12.20;99.90;;;;;;4994488;28;20174;-60
2024/04/02 06:17:23;;;;;;;3.77;3.47;;;12.20;99.90;;;;;;4994745;28;20175;-60
2024/04/02 06:19:48;;;;;;;4.93;4.53;;;12.20;99.90;;;;;;5007184;28;20586;-60
2024/04/02 06:22:14;;;;;;;5.47;5.17;;;12.20;99.90;;;;;;5014512;28;20184;-61
2024/04/02 06:24:40;;;;;;;4.80;4.50;;;12.30;99.90;;;;;;5011834;28;20172;-60
2024/04/02 06:27:06;;;;;;;4.50;4.20;;;12.20;99.90;;;;;;5014135;28;20202;-65
2024/04/02 06:29:31;;;;;;;4.43;4.13;;;12.20;99.90;;;;;;5014330;28;20217;-71
2024/04/02 06:31:57;;;;;;;4.77;4.47;;;12.20;99.90;;;;;;5013040;28;20194;-68
2024/04/02 06:34:23;;;;;;;3.97;3.67;;;12.10;99.90;;;;;;5012581;28;20756;-73
2024/04/02 06:36:49;;;;;;;4.00;3.80;;;12.10;99.90;;;;;;5008272;28;20195;-68
2024/04/02 06:39:14;;;;;;;4.80;4.33;;;12.10;99.90;;;;;;5014167;28;20260;-68
2024/04/02 06:41:40;;;;;;;7.50;4.10;;;12.10;99.90;;;;;;5013224;28;20185;-68
2024/04/02 06:44:06;;;;;;;4.00;3.73;;;12.10;99.90;;;;;;5013942;28;20201;-74
2024/04/02 06:46:32;;;;;;;4.27;3.97;;;12.20;99.90;;;;;;5013523;28;20171;-75
2024/04/02 06:48:58;;;;;;;5.00;4.40;;;12.20;99.90;;;;;;5012878;28;20580;-75
2024/04/02 06:51:24;;;;;;;5.80;4.27;;;12.20;99.90;;;;;;5013444;28;20186;-71
2024/04/02 06:53:50;;;;;;;4.93;4.53;;;12.10;99.90;;;;;;5011815;28;20416;-72
2024/04/02 06:56:16;;;;;;;3.57;3.30;;;12.20;99.90;;;;;;5013616;28;20931;-73
2024/04/02 06:58:42;;;;;;;4.63;3.60;;;12.30;99.90;;;;;;5012603;28;20515;-67
2024/04/02 07:01:08;;;;;;;5.27;3.00;;;12.20;99.90;;;;;;5012469;28;20186;-67
2024/04/02 07:03:34;;;;;;;5.17;4.23;;;12.20;99.90;;;;;;5012833;28;20468;-68
2024/04/02 07:06:00;;;;;;;3.60;3.40;;;12.30;99.90;;;;;;5013212;28;20412;-67
2024/04/02 07:08:25;;;;;;;3.67;3.20;;;12.30;99.90;;;;;;5011833;28;20184;-67
2024/04/02 07:11:05;;;;;;;3.50;3.30;;;12.40;99.90;;;;;;5013126;28;20257;-68
2024/04/02 07:13:32;;;;;;;3.60;3.33;;;12.50;99.90;;;;;;5012738;28;20590;-68
2024/04/02 07:15:58;;;;;;;9.27;5.10;;;12.50;99.90;;;;;;5012420;28;20405;-67
2024/04/02 07:18:24;;;;;;;5.07;4.67;;;12.50;99.90;;;;;;5007708;28;20414;-66
2024/04/02 07:21:01;;;;;;;7.40;4.30;;;12.80;99.90;;;;;;5027789;28;20462;-67
2024/04/02 07:23:26;;;;;;;8.20;4.60;;;13.10;99.90;;;;;;5013120;28;20888;-66
2024/04/02 07:25:53;;;;;;;8.00;4.80;;;13.40;99.90;;;;;;5012020;28;20419;-66
2024/04/02 07:28:20;;;;;;;4.70;4.40;;;13.80;99.90;;;;;;5010700;28;20418;-67
2024/04/02 07:30:45;;;;;;;7.23;4.10;;;14.10;99.90;;;;;;5010032;28;20467;-67
2024/04/02 07:33:11;;;;;;;8.33;4.40;;;14.10;99.90;;;;;;5011641;28;20455;-67
2024/04/02 07:35:38;;;;;;;3.83;3.53;;;14.30;99.90;;;;;;5012976;28;20188;-67
2024/04/02 07:38:04;;;;;;;5.37;3.80;;;14.50;99.90;;;;;;5012039;28;20243;-67
2024/04/02 07:40:30;;;;;;;4.50;3.30;;;14.50;99.90;;;;;;5012105;28;20432;-67
2024/04/02 07:42:57;;;;;;;4.53;4.03;;;14.50;99.90;;;;;;5011735;28;20425;-67
2024/04/02 07:45:23;;;;;;;5.53;4.03;;;14.70;99.90;;;;;;5013090;28;20415;-67
2024/04/02 07:47:49;;;;;;;4.50;4.20;;;14.90;99.90;;;;;;5011839;28;20401;-67
2024/04/02 07:50:15;;;;;;;4.43;3.93;;;15.10;99.90;;;;;;5013038;28;20599;-67
2024/04/02 07:52:40;;;;;;;4.83;3.77;;;15.10;99.90;;;;;;5011696;28;20230;-67
2024/04/02 07:55:06;;;;;;;3.67;3.30;;;15.30;99.90;;;;;;5012556;28;20418;-66
2024/04/02 07:57:32;;;;;;;4.83;4.00;;;15.50;99.90;;;;;;5011650;28;20171;-67
2024/04/02 07:59:57;;;;;;;4.53;2.90;;;15.60;99.90;;;;;;5012292;28;20255;-67
2024/04/02 08:02:23;;;;;;;4.10;3.70;;;15.70;99.90;;;;;;5010600;28;20219;-67
2024/04/02 08:04:51;;;;;;;4.30;3.37;;;15.70;99.90;;;;;;5011468;28;20222;-66
2024/04/02 08:07:18;;;;;;;6.07;4.23;;;15.60;99.90;;;;;;5011586;28;20178;-67
2024/04/02 08:09:45;;;;;;;4.87;3.20;;;15.60;99.90;;;;;;5009815;28;20499;-66
2024/04/02 08:12:11;;;;;;;5.20;3.50;;;15.50;99.90;;;;;;5009940;28;20430;-67
2024/04/02 08:14:37;;;;;;;5.13;3.63;;;15.50;99.90;;;;;;5012379;28;20428;-67
2024/04/02 08:17:03;;;;;;;4.83;3.83;;;15.60;99.90;;;;;;5011999;28;20756;-67
2024/04/02 08:19:29;;;;;;;4.90;3.10;;;15.60;99.90;;;;;;5012888;28;20185;-67
2024/04/02 08:21:55;;;;;;;3.30;2.97;;;15.60;99.90;;;;;;5011845;28;20917;-67
2024/04/02 08:24:22;;;;;;;3.60;3.20;;;15.60;99.90;;;;;;5012693;28;20421;-67
2024/04/02 08:26:47;;;;;;;5.00;3.00;;;15.60;99.90;;;;;;5010515;28;20480;-66
2024/04/02 08:29:14;;;;;;;9.87;4.13;;;15.80;99.90;;;;;;5012188;28;20758;-67
2024/04/02 08:31:40;;;;;;;4.23;3.23;;;15.80;99.90;;;;;;5011221;28;20241;-67
2024/04/02 08:34:05;;;;;;;5.10;3.63;;;15.90;99.90;;;;;;5017563;28;20838;-67
2024/04/02 08:36:31;;;;;;;5.10;3.87;;;15.80;99.90;;;;;;5003377;28;20171;-67
2024/04/02 08:38:57;;;;;;;3.50;3.30;;;15.60;99.30;;;;;;5011587;28;20175;-67
2024/04/02 08:41:26;;;;;;;4.43;4.03;;;15.60;99.90;;;;;;5012297;28;20183;-67
2024/04/02 08:43:57;;;;;;;5.50;3.37;;;15.60;99.90;;;;;;5009860;28;20182;-67
2024/04/02 08:46:28;;;;;;;4.60;3.23;;;15.50;99.90;;;;;;5012217;28;20754;-67
2024/04/02 08:48:57;;;;;;;4.50;3.20;;;15.50;99.70;;;;;;5011808;28;20409;-67
2024/04/02 08:51:23;;;;;;;3.70;3.10;;;15.50;99.90;;;;;;5012365;28;20924;-67
2024/04/02 08:53:49;;;;;;;3.30;3.00;;;15.60;99.90;;;;;;5011687;28;20512;-67
2024/04/02 08:56:15;;;;;;;6.13;3.83;;;15.60;99.90;;;;;;5011203;28;20241;-68
2024/04/02 08:58:42;;;;;;;5.80;2.80;;;15.60;99.90;;;;;;5012076;28;20283;-68
2024/04/02 09:01:11;;;;;;;2.63;2.43;;;15.60;99.90;;;;;;5014278;28;20472;-68
2024/04/02 09:03:36;;;;;;;4.27;3.40;;;15.60;99.80;;;;;;5013931;28;20461;-67
2024/04/02 09:06:03;;;;;;;2.93;2.60;;;15.60;99.20;;;;;;5014768;28;20413;-67
2024/04/02 09:08:29;;;;;;;5.57;3.20;;;15.60;97.90;;;;;;5003318;28;20183;-68
2024/04/02 09:10:55;;;;;;;2.60;2.40;;;15.70;99.90;;;;;;5014660;28;20456;-67
2024/04/02 09:13:21;;;;;;;5.87;3.43;;;15.70;97.90;;;;;;5003835;28;20938;-68
2024/04/02 09:15:47;;;;;;;4.00;3.10;;;15.70;96.90;;;;;;5004067;28;20186;-62
2024/04/02 09:18:16;;;;;;;3.00;2.60;;;15.70;98.00;;;;;;5015324;28;20261;-67
2024/04/02 09:20:42;;;;;;;4.97;3.40;;;15.80;98.00;;;;;;5015201;28;20410;-67
2024/04/02 09:23:09;;;;;;;3.43;3.13;;;15.90;99.00;;;;;;5014576;28;20553;-67
2024/04/02 09:25:34;;;;;;;3.00;2.73;;;15.90;99.90;;;;;;5014330;28;20199;-72
2024/04/02 09:28:00;;;;;;;3.87;3.20;;;16.00;96.60;;;;;;5015045;28;20517;-72
2024/04/02 09:30:26;;;;;;;7.70;3.20;;;15.80;95.00;;;;;;5015034;28;20298;-68
2024/04/02 09:32:53;;;;;;;5.10;3.30;;;15.50;95.30;;;;;;5014514;28;20233;-65
2024/04/02 09:35:51;;;;;;;4.80;3.30;;;15.30;95.70;;;;;;5015210;28;20433;-68
2024/04/02 09:38:19;;;;;;;10.80;3.50;;;14.90;95.80;;;;;;4990660;28;20802;-68
2024/04/02 09:40:45;;;;;;;4.43;3.30;;;14.90;96.30;;;;;;5014918;28;20912;-67
2024/04/02 09:43:13;;;;;;;4.17;3.23;;;14.50;96.50;;;;;;4992261;28;20525;-68
2024/04/02 09:45:39;;;;;;;5.97;3.20;;;14.30;97.60;;;;;;4995485;28;20410;-68
2024/04/02 09:48:07;;;;;;;4.57;3.50;;;14.20;97.70;;;;;;5012440;28;20430;-68
2024/04/02 09:50:35;;;;;;;5.37;3.33;;;14.10;98.00;;;;;;5014809;28;20216;-68
2024/04/02 09:53:00;;;;;;;3.40;3.10;;;14.10;98.60;;;;;;5014587;28;20423;-68
2024/04/02 09:55:29;;;;;;;5.50;4.53;;;14.00;99.10;;;;;;5014706;28;20417;-68
2024/04/02 09:57:57;;;;;;;3.40;3.10;;;14.00;99.30;;;;;;5014147;28;20173;-67
2024/04/02 10:00:24;;;;;;;4.97;3.00;;;14.00;99.60;;;;;;5014177;28;20837;-68
2024/04/02 10:02:50;;;;;;;3.47;3.17;;;13.90;99.70;;;;;;5013584;28;20962;-64
2024/04/02 10:05:21;;;;;;;6.80;2.60;;;13.80;99.90;;;;;;5014361;28;20412;-67
2024/04/02 10:07:50;;;;;;;3.10;2.90;;;13.90;99.90;;;;;;5010824;28;20487;-68
2024/04/02 10:10:16;;;;;;;5.33;3.70;;;13.80;99.90;;;;;;5013305;28;20487;-67
2024/04/02 10:12:42;;;;;;;7.20;4.93;;;13.80;99.90;;;;;;5012095;28;20459;-68
2024/04/02 10:15:12;;;;;;;4.67;2.20;;;13.70;99.90;;;;;;5012719;28;20411;-68
2024/04/02 10:17:38;;;;;;;4.00;3.37;;;13.60;99.90;;;;;;5014395;28;20407;-69
2024/04/02 10:20:25;;;;;;;5.83;2.90;;;13.70;99.90;;;;;;5013120;28;20478;-68
2024/04/02 10:23:02;;;;;;;4.20;2.40;;;13.70;99.90;;;;;;5009501;28;20429;-63
2024/04/02 10:25:31;;;;;;;6.33;2.87;;;13.70;99.90;;;;;;5013619;28;20436;-76
2024/04/02 10:27:59;;;;;;;3.43;2.60;;;13.70;99.90;;;;;;5013727;28;20977;-75
2024/04/02 10:30:26;;;;;;;8.73;5.90;;;13.60;99.90;;;;;;5012575;28;20466;-66
2024/04/02 10:32:56;;;;;;;5.80;4.90;;;13.80;99.90;;;;;;5011161;28;20512;-74
2024/04/02 10:35:27;;;;;;;6.33;3.50;;;13.90;99.90;;;;;;5013239;28;20424;-75
2024/04/02 10:37:57;;;;;;;5.70;2.37;;;13.90;99.90;;;;;;5013684;28;20415;-75
2024/04/02 10:40:24;;;;;;;2.80;2.50;;;13.90;99.90;;;;;;5014111;28;20423;-76
2024/04/02 10:42:52;;;;;;;3.30;2.50;;;14.00;99.90;;;;;;5014001;28;20408;-76
2024/04/02 10:45:18;;;;;;;2.73;2.43;;;14.10;99.90;;;;;;5012525;28;20813;-75
2024/04/02 10:47:52;;;;;;;3.40;2.53;;;14.10;99.90;;;;;;5012818;28;20519;-76
2024/04/02 10:50:22;;;;;;;3.70;3.17;;;14.20;99.90;;;;;;5012887;28;20543;-79
2024/04/02 10:52:48;;;;;;;4.63;2.80;;;14.10;99.90;;;;;;4996061;28;20893;-75
2024/04/02 10:55:14;;;;;;;6.10;2.67;;;14.20;99.90;;;;;;5012993;28;20505;-75
2024/04/02 10:57:41;;;;;;;2.33;2.13;;;14.00;99.90;;;;;;5013777;28;20449;-75
2024/04/02 11:00:11;;;;;;;2.20;2.10;;;14.10;99.90;;;;;;5011867;28;20519;-75
2024/04/02 11:02:38;;;;;;;2.43;2.23;;;14.00;99.90;;;;;;5011076;28;21031;-67
2024/04/02 11:05:06;;;;;;;2.93;2.50;;;13.90;99.90;;;;;;5011605;28;20415;-68
2024/04/02 11:07:33;;;;;;;4.03;2.50;;;13.90;99.90;;;;;;5011401;28;20421;-68
2024/04/02 11:10:00;;;;;;;5.70;2.40;;;13.90;99.90;;;;;;5011973;28;20497;-68
2024/04/02 11:12:26;;;;;;;3.20;2.60;;;14.00;99.90;;;;;;5011497;28;20912;-68
2024/04/02 11:14:53;;;;;;;3.10;2.13;;;14.10;99.90;;;;;;5013078;28;20508;-68
2024/04/02 11:17:20;;;;;;;2.57;2.37;;;14.30;99.90;;;;;;5013125;28;20405;-68
2024/04/02 11:19:46;;;;;;;2.47;2.30;;;14.40;99.90;;;;;;5013040;28;20764;-68
2024/04/02 11:25:11;;;;;;;3.03;2.40;;;14.40;99.90;;;;;;5012460;28;20949;-67
2024/04/02 11:27:41;;;;;;;2.57;2.30;;;14.50;99.90;;;;;;5000118;28;20563;-70
2024/04/02 11:30:08;;;;;;;2.87;2.50;;;14.60;99.90;;;;;;5012043;28;20990;-69
2024/04/02 11:32:34;;;;;;;3.23;2.93;;;14.60;99.80;;;;;;5011840;28;20432;-68
2024/04/02 11:35:12;;;;;;;2.73;2.47;;;14.60;99.20;;;;;;5011790;28;20472;-68
2024/04/02 11:37:38;;;;;;;2.10;2.00;;;14.60;99.10;;;;;;5021714;28;20468;-73
2024/04/02 11:40:06;;;;;;;2.50;2.40;;;14.60;98.40;;;;;;5014755;28;20474;-74
2024/04/02 11:42:32;;;;;;;2.60;2.17;;;14.40;98.60;;;;;;5012631;28;20182;-74
2024/04/02 11:45:00;;;;;;;2.07;1.93;;;14.40;98.70;;;;;;5012444;28;20490;-74
2024/04/02 11:47:27;;;;;;;7.47;2.70;;;14.40;98.90;;;;;;5013228;28;20409;-74
2024/04/02 11:49:52;;;;;;;3.40;2.10;;;14.50;99.00;;;;;;5012847;28;20460;-75
2024/04/02 11:52:18;;;;;;;4.13;2.50;;;14.40;99.60;;;;;;5000446;28;20919;-74
2024/04/02 11:54:44;;;;;;;2.30;2.10;;;14.40;99.60;;;;;;5012695;28;20178;-73
2024/04/02 12:00:15;;;;;;;3.33;3.03;;;14.50;99.40;;;;;;5011908;28;20225;-69
2024/04/02 12:02:42;;;;;;;5.33;2.90;;;14.50;99.90;;;;;;5012118;28;20472;-69
2024/04/02 12:05:09;;;;;;;2.50;2.07;;;14.60;99.90;;;;;;5012200;28;20513;-68
2024/04/02 12:07:35;;;;;;;2.27;2.10;;;14.60;99.90;;;;;;5012349;28;20447;-69
2024/04/02 12:10:02;;;;;;;2.40;2.20;;;14.50;99.90;;;;;;5010584;28;20464;-68
2024/04/02 12:12:32;;;;;;;6.37;2.90;;;14.40;99.90;;;;;;5010693;28;20425;-68
2024/04/02 12:14:58;;;;;;;2.40;2.20;;;14.30;99.90;;;;;;5012241;28;20947;-63
2024/04/02 12:17:24;;;;;;;5.63;2.57;;;14.20;99.90;;;;;;5012498;28;20412;-69
2024/04/02 12:19:51;;;;;;;2.50;2.20;;;14.10;99.90;;;;;;5012554;28;20432;-68
2024/04/02 12:22:18;;;;;;;3.33;2.47;;;14.10;99.90;;;;;;5012015;28;20710;-69
2024/04/02 12:24:43;;;;;;;2.90;2.40;;;14.10;99.90;;;;;;5011158;28;20412;-69
2024/04/02 12:27:09;;;;;;;2.63;2.43;;;14.10;99.90;;;;;;5010958;28;20416;-68
2024/04/02 12:29:38;;;;;;;2.70;2.60;;;14.10;99.90;;;;;;5012532;28;20286;-68
2024/04/02 12:32:05;;;;;;;2.33;2.13;;;14.10;99.90;;;;;;5011959;28;20180;-68
2024/04/02 12:34:31;;;;;;;3.67;2.37;;;14.10;99.90;;;;;;5014670;28;20420;-68
2024/04/02 12:36:59;;;;;;;2.37;2.27;;;14.00;99.90;;;;;;5016228;28;20407;-69
2024/04/02 12:39:25;;;;;;;2.10;1.90;;;13.90;99.90;;;;;;5016233;28;20875;-68
2024/04/02 12:41:50;;;;;;;1.80;1.73;;;13.80;99.90;;;;;;5016246;28;20499;-68
2024/04/02 12:44:16;;;;;;;2.00;1.90;;;13.80;99.90;;;;;;5015606;28;20185;-68
2024/04/02 12:46:42;;;;;;;1.80;1.70;;;13.90;99.90;;;;;;5015880;28;20177;-68
2024/04/02 12:49:12;;;;;;;2.43;2.17;;;13.90;99.90;;;;;;5015153;28;20173;-68
2024/04/02 12:51:38;;;;;;;1.90;1.90;;;14.00;99.90;;;;;;5014654;28;20630;-67